sensor_id;sensor_type;location;lat;lon;timestamp;P1;durP1;ratioP1;P2;durP2;ratioP2
21671;SDS011;10997;52.242;8.168;2022-12-07T00:02:52;65.97;;;36.92;;
21671;SDS011;10997;52.242;8.168;2022-12-07T00:07:53;64.85;;;35.40;;
21671;SDS011;10997;52.242;8.168;2022-12-07T00:12:53;55.15;;;32.58;;
21671;SDS011;10997;52.242;8.168;2022-12-07T00:17:54;56.25;;;32.22;;
21671;SDS011;10997;52.242;8.168;2022-12-07T00:22:54;50.95;;;30.50;;
21671;SDS011;10997;52.242;8.168;2022-12-07T00:27:55;44.72;;;27.67;;
21671;SDS011;10997;52.242;8.168;2022-12-07T00:32:56;44.00;;;26.00;;
21671;SDS011;10997;52.242;8.168;2022-12-07T00:37:57;36.97;;;22.88;;
21671;SDS011;10997;52.242;8.168;2022-12-07T00:42:57;36.17;;;21.30;;
21671;SDS011;10997;52.242;8.168;2022-12-07T00:47:58;32.50;;;21.10;;
21671;SDS011;10997;52.242;8.168;2022-12-07T00:52:59;34.00;;;21.55;;
21671;SDS011;10997;52.242;8.168;2022-12-07T00:57:59;34.35;;;21.23;;
21671;SDS011;10997;52.242;8.168;2022-12-07T01:03:00;30.05;;;20.08;;
21671;SDS011;10997;52.242;8.168;2022-12-07T01:08:01;31.48;;;20.00;;
21671;SDS011;10997;52.242;8.168;2022-12-07T01:13:02;32.20;;;18.48;;
21671;SDS011;10997;52.242;8.168;2022-12-07T01:18:02;32.88;;;18.23;;
21671;SDS011;10997;52.242;8.168;2022-12-07T01:23:03;34.65;;;18.38;;
21671;SDS011;10997;52.242;8.168;2022-12-07T01:28:04;32.42;;;18.30;;
21671;SDS011;10997;52.242;8.168;2022-12-07T01:33:05;31.33;;;17.35;;
21671;SDS011;10997;52.242;8.168;2022-12-07T01:38:05;27.38;;;17.48;;
21671;SDS011;10997;52.242;8.168;2022-12-07T01:43:18;29.45;;;16.75;;
21671;SDS011;10997;52.242;8.168;2022-12-07T01:48:27;27.33;;;17.15;;
21671;SDS011;10997;52.242;8.168;2022-12-07T01:53:32;29.42;;;17.90;;
21671;SDS011;10997;52.242;8.168;2022-12-07T01:58:36;30.05;;;17.55;;
21671;SDS011;10997;52.242;8.168;2022-12-07T02:03:38;25.05;;;16.02;;
21671;SDS011;10997;52.242;8.168;2022-12-07T02:08:40;32.30;;;16.75;;
21671;SDS011;10997;52.242;8.168;2022-12-07T02:13:42;28.55;;;15.38;;
21671;SDS011;10997;52.242;8.168;2022-12-07T02:29:25;25.13;;;14.52;;
21671;SDS011;10997;52.242;8.168;2022-12-07T02:40:01;23.38;;;13.57;;
21671;SDS011;10997;52.242;8.168;2022-12-07T02:45:22;26.02;;;13.10;;
21671;SDS011;10997;52.242;8.168;2022-12-07T02:50:25;24.30;;;12.50;;
21671;SDS011;10997;52.242;8.168;2022-12-07T02:55:31;21.80;;;12.40;;
21671;SDS011;10997;52.242;8.168;2022-12-07T03:00:44;19.63;;;11.07;;
21671;SDS011;10997;52.242;8.168;2022-12-07T03:11:13;18.40;;;9.57;;
21671;SDS011;10997;52.242;8.168;2022-12-07T03:16:20;20.08;;;9.63;;
21671;SDS011;10997;52.242;8.168;2022-12-07T03:21:26;15.55;;;9.13;;
21671;SDS011;10997;52.242;8.168;2022-12-07T03:26:35;20.75;;;9.25;;
21671;SDS011;10997;52.242;8.168;2022-12-07T03:31:40;19.02;;;8.57;;
21671;SDS011;10997;52.242;8.168;2022-12-07T03:36:57;21.55;;;8.93;;
21671;SDS011;10997;52.242;8.168;2022-12-07T03:42:03;20.98;;;7.82;;
21671;SDS011;10997;52.242;8.168;2022-12-07T03:47:19;18.42;;;7.90;;
21671;SDS011;10997;52.242;8.168;2022-12-07T03:52:32;20.40;;;7.90;;
21671;SDS011;10997;52.242;8.168;2022-12-07T03:57:43;17.15;;;6.78;;
21671;SDS011;10997;52.242;8.168;2022-12-07T04:02:46;18.23;;;6.28;;
21671;SDS011;10997;52.242;8.168;2022-12-07T04:07:47;14.38;;;6.20;;
21671;SDS011;10997;52.242;8.168;2022-12-07T04:12:48;16.15;;;6.13;;
21671;SDS011;10997;52.242;8.168;2022-12-07T04:17:48;17.95;;;6.50;;
21671;SDS011;10997;52.242;8.168;2022-12-07T04:22:49;12.68;;;6.43;;
21671;SDS011;10997;52.242;8.168;2022-12-07T04:27:49;12.85;;;5.88;;
21671;SDS011;10997;52.242;8.168;2022-12-07T04:32:50;18.17;;;6.35;;
21671;SDS011;10997;52.242;8.168;2022-12-07T04:37:50;16.00;;;6.22;;
21671;SDS011;10997;52.242;8.168;2022-12-07T04:42:51;19.25;;;6.13;;
21671;SDS011;10997;52.242;8.168;2022-12-07T04:47:52;15.43;;;6.20;;
21671;SDS011;10997;52.242;8.168;2022-12-07T04:52:52;19.10;;;5.25;;
21671;SDS011;10997;52.242;8.168;2022-12-07T04:57:53;20.02;;;5.70;;
21671;SDS011;10997;52.242;8.168;2022-12-07T05:02:53;16.17;;;5.05;;
21671;SDS011;10997;52.242;8.168;2022-12-07T05:07:54;16.63;;;4.75;;
21671;SDS011;10997;52.242;8.168;2022-12-07T05:12:54;14.55;;;5.05;;
21671;SDS011;10997;52.242;8.168;2022-12-07T05:17:55;11.70;;;4.03;;
21671;SDS011;10997;52.242;8.168;2022-12-07T05:22:56;11.80;;;4.57;;
21671;SDS011;10997;52.242;8.168;2022-12-07T05:27:58;15.15;;;4.38;;
21671;SDS011;10997;52.242;8.168;2022-12-07T05:32:59;16.05;;;3.92;;
21671;SDS011;10997;52.242;8.168;2022-12-07T05:37:59;8.75;;;3.78;;
21671;SDS011;10997;52.242;8.168;2022-12-07T05:43:00;13.68;;;4.00;;
21671;SDS011;10997;52.242;8.168;2022-12-07T05:48:01;14.80;;;4.03;;
21671;SDS011;10997;52.242;8.168;2022-12-07T05:53:01;11.68;;;4.65;;
21671;SDS011;10997;52.242;8.168;2022-12-07T05:58:02;17.38;;;4.53;;
21671;SDS011;10997;52.242;8.168;2022-12-07T06:03:21;11.32;;;4.35;;
21671;SDS011;10997;52.242;8.168;2022-12-07T06:08:22;13.90;;;3.95;;
21671;SDS011;10997;52.242;8.168;2022-12-07T06:13:23;14.25;;;4.18;;
21671;SDS011;10997;52.242;8.168;2022-12-07T06:18:23;14.32;;;3.22;;
21671;SDS011;10997;52.242;8.168;2022-12-07T06:23:24;15.40;;;3.78;;
21671;SDS011;10997;52.242;8.168;2022-12-07T06:28:24;18.73;;;3.70;;
21671;SDS011;10997;52.242;8.168;2022-12-07T06:33:25;11.98;;;3.38;;
21671;SDS011;10997;52.242;8.168;2022-12-07T06:38:26;9.90;;;3.50;;
21671;SDS011;10997;52.242;8.168;2022-12-07T06:43:27;12.65;;;3.00;;
21671;SDS011;10997;52.242;8.168;2022-12-07T06:48:28;15.25;;;3.40;;
21671;SDS011;10997;52.242;8.168;2022-12-07T06:53:28;10.18;;;3.00;;
21671;SDS011;10997;52.242;8.168;2022-12-07T06:58:29;11.68;;;2.97;;
21671;SDS011;10997;52.242;8.168;2022-12-07T07:03:30;13.68;;;2.97;;
21671;SDS011;10997;52.242;8.168;2022-12-07T07:08:30;15.27;;;3.33;;
21671;SDS011;10997;52.242;8.168;2022-12-07T07:13:31;10.18;;;2.60;;
21671;SDS011;10997;52.242;8.168;2022-12-07T07:18:32;17.15;;;3.00;;
21671;SDS011;10997;52.242;8.168;2022-12-07T07:23:33;10.20;;;2.70;;
21671;SDS011;10997;52.242;8.168;2022-12-07T07:28:34;14.48;;;3.20;;
21671;SDS011;10997;52.242;8.168;2022-12-07T07:33:34;12.48;;;2.95;;
21671;SDS011;10997;52.242;8.168;2022-12-07T07:38:35;13.88;;;2.78;;
21671;SDS011;10997;52.242;8.168;2022-12-07T07:43:35;12.95;;;2.78;;
21671;SDS011;10997;52.242;8.168;2022-12-07T07:48:36;9.75;;;2.58;;
21671;SDS011;10997;52.242;8.168;2022-12-07T07:53:37;12.30;;;2.80;;
21671;SDS011;10997;52.242;8.168;2022-12-07T07:58:37;10.30;;;2.80;;
21671;SDS011;10997;52.242;8.168;2022-12-07T08:03:39;11.90;;;2.90;;
21671;SDS011;10997;52.242;8.168;2022-12-07T08:08:39;13.25;;;2.97;;
21671;SDS011;10997;52.242;8.168;2022-12-07T08:13:40;13.18;;;3.30;;
21671;SDS011;10997;52.242;8.168;2022-12-07T08:18:41;16.20;;;3.53;;
21671;SDS011;10997;52.242;8.168;2022-12-07T08:23:42;11.50;;;3.10;;
21671;SDS011;10997;52.242;8.168;2022-12-07T08:28:43;14.80;;;3.10;;
21671;SDS011;10997;52.242;8.168;2022-12-07T08:33:45;18.02;;;2.90;;
21671;SDS011;10997;52.242;8.168;2022-12-07T08:38:48;14.77;;;2.97;;
21671;SDS011;10997;52.242;8.168;2022-12-07T08:43:50;16.17;;;2.90;;
21671;SDS011;10997;52.242;8.168;2022-12-07T08:53:54;18.45;;;3.35;;
21671;SDS011;10997;52.242;8.168;2022-12-07T08:58:58;15.68;;;3.03;;
21671;SDS011;10997;52.242;8.168;2022-12-07T09:03:58;9.30;;;2.97;;
21671;SDS011;10997;52.242;8.168;2022-12-07T09:08:59;12.45;;;3.13;;
21671;SDS011;10997;52.242;8.168;2022-12-07T09:14:02;15.70;;;2.83;;
21671;SDS011;10997;52.242;8.168;2022-12-07T09:19:03;14.63;;;2.90;;
21671;SDS011;10997;52.242;8.168;2022-12-07T09:24:03;14.32;;;2.83;;
21671;SDS011;10997;52.242;8.168;2022-12-07T09:29:04;13.13;;;2.85;;
21671;SDS011;10997;52.242;8.168;2022-12-07T09:34:05;14.60;;;3.00;;
21671;SDS011;10997;52.242;8.168;2022-12-07T09:39:07;11.98;;;3.38;;
21671;SDS011;10997;52.242;8.168;2022-12-07T09:44:10;14.32;;;2.85;;
21671;SDS011;10997;52.242;8.168;2022-12-07T09:49:17;12.57;;;2.70;;
21671;SDS011;10997;52.242;8.168;2022-12-07T09:54:24;13.70;;;2.90;;
21671;SDS011;10997;52.242;8.168;2022-12-07T09:59:24;11.05;;;2.70;;
21671;SDS011;10997;52.242;8.168;2022-12-07T10:04:25;9.00;;;2.40;;
21671;SDS011;10997;52.242;8.168;2022-12-07T10:09:26;11.23;;;2.90;;
21671;SDS011;10997;52.242;8.168;2022-12-07T10:14:30;11.25;;;2.60;;
21671;SDS011;10997;52.242;8.168;2022-12-07T10:19:33;6.97;;;2.35;;
21671;SDS011;10997;52.242;8.168;2022-12-07T10:24:34;9.02;;;2.45;;
21671;SDS011;10997;52.242;8.168;2022-12-07T10:29:38;11.48;;;2.75;;
21671;SDS011;10997;52.242;8.168;2022-12-07T10:34:39;10.27;;;2.65;;
21671;SDS011;10997;52.242;8.168;2022-12-07T10:39:45;11.00;;;2.58;;
21671;SDS011;10997;52.242;8.168;2022-12-07T10:45:12;7.33;;;2.00;;
21671;SDS011;10997;52.242;8.168;2022-12-07T11:01:00;11.45;;;2.38;;
21671;SDS011;10997;52.242;8.168;2022-12-07T11:11:34;10.00;;;2.53;;
21671;SDS011;10997;52.242;8.168;2022-12-07T11:17:26;9.32;;;2.47;;
21671;SDS011;10997;52.242;8.168;2022-12-07T11:22:41;5.82;;;2.22;;
21671;SDS011;10997;52.242;8.168;2022-12-07T11:33:36;7.32;;;2.08;;
21671;SDS011;10997;52.242;8.168;2022-12-07T11:38:41;6.72;;;1.83;;
21671;SDS011;10997;52.242;8.168;2022-12-07T11:43:56;7.53;;;2.08;;
21671;SDS011;10997;52.242;8.168;2022-12-07T11:49:18;6.68;;;1.92;;
21671;SDS011;10997;52.242;8.168;2022-12-07T11:54:40;10.50;;;2.22;;
21671;SDS011;10997;52.242;8.168;2022-12-07T11:59:45;10.30;;;2.45;;
21671;SDS011;10997;52.242;8.168;2022-12-07T12:04:54;8.63;;;2.10;;
21671;SDS011;10997;52.242;8.168;2022-12-07T12:10:04;12.25;;;2.30;;
21671;SDS011;10997;52.242;8.168;2022-12-07T12:15:24;9.18;;;2.22;;
21671;SDS011;10997;52.242;8.168;2022-12-07T12:20:31;11.77;;;2.28;;
21671;SDS011;10997;52.242;8.168;2022-12-07T12:25:41;10.38;;;2.15;;
21671;SDS011;10997;52.242;8.168;2022-12-07T12:30:45;10.33;;;2.20;;
21671;SDS011;10997;52.242;8.168;2022-12-07T12:46:45;10.15;;;2.13;;
21671;SDS011;10997;52.242;8.168;2022-12-07T12:51:53;9.18;;;2.20;;
21671;SDS011;10997;52.242;8.168;2022-12-07T13:08:00;8.20;;;2.25;;
21671;SDS011;10997;52.242;8.168;2022-12-07T13:28:50;10.30;;;2.00;;
21671;SDS011;10997;52.242;8.168;2022-12-07T13:33:53;9.32;;;1.85;;
21671;SDS011;10997;52.242;8.168;2022-12-07T13:38:54;16.10;;;2.95;;
21671;SDS011;10997;52.242;8.168;2022-12-07T13:44:02;8.70;;;1.95;;
21671;SDS011;10997;52.242;8.168;2022-12-07T13:49:16;6.00;;;1.90;;
21671;SDS011;10997;52.242;8.168;2022-12-07T13:54:19;6.28;;;1.48;;
21671;SDS011;10997;52.242;8.168;2022-12-07T13:59:21;7.15;;;2.00;;
21671;SDS011;10997;52.242;8.168;2022-12-07T14:09:31;7.63;;;2.10;;
21671;SDS011;10997;52.242;8.168;2022-12-07T14:14:31;9.77;;;2.35;;
21671;SDS011;10997;52.242;8.168;2022-12-07T14:24:58;9.25;;;1.95;;
21671;SDS011;10997;52.242;8.168;2022-12-07T14:30:05;7.75;;;1.98;;
21671;SDS011;10997;52.242;8.168;2022-12-07T14:35:10;12.23;;;2.20;;
21671;SDS011;10997;52.242;8.168;2022-12-07T14:40:19;13.20;;;2.28;;
21671;SDS011;10997;52.242;8.168;2022-12-07T14:45:22;12.52;;;2.45;;
21671;SDS011;10997;52.242;8.168;2022-12-07T14:50:23;9.68;;;1.83;;
21671;SDS011;10997;52.242;8.168;2022-12-07T14:55:25;8.93;;;2.42;;
21671;SDS011;10997;52.242;8.168;2022-12-07T15:00:28;13.70;;;2.42;;
21671;SDS011;10997;52.242;8.168;2022-12-07T15:05:29;3.42;;;0.88;;
21671;SDS011;10997;52.242;8.168;2022-12-07T15:10:30;1.77;;;0.70;;
21671;SDS011;10997;52.242;8.168;2022-12-07T15:15:33;4.55;;;0.80;;
21671;SDS011;10997;52.242;8.168;2022-12-07T15:20:34;3.67;;;1.00;;
21671;SDS011;10997;52.242;8.168;2022-12-07T15:25:34;4.43;;;0.98;;
21671;SDS011;10997;52.242;8.168;2022-12-07T15:30:38;3.95;;;1.20;;
21671;SDS011;10997;52.242;8.168;2022-12-07T15:35:44;7.07;;;1.40;;
21671;SDS011;10997;52.242;8.168;2022-12-07T15:40:48;8.13;;;1.55;;
21671;SDS011;10997;52.242;8.168;2022-12-07T15:45:50;7.07;;;1.97;;
21671;SDS011;10997;52.242;8.168;2022-12-07T15:50:51;8.65;;;2.40;;
21671;SDS011;10997;52.242;8.168;2022-12-07T15:55:52;11.45;;;2.78;;
21671;SDS011;10997;52.242;8.168;2022-12-07T16:00:52;11.20;;;2.90;;
21671;SDS011;10997;52.242;8.168;2022-12-07T16:05:53;8.70;;;3.10;;
21671;SDS011;10997;52.242;8.168;2022-12-07T16:10:54;12.00;;;3.10;;
21671;SDS011;10997;52.242;8.168;2022-12-07T16:15:54;8.27;;;2.72;;
21671;SDS011;10997;52.242;8.168;2022-12-07T16:20:55;11.68;;;2.80;;
21671;SDS011;10997;52.242;8.168;2022-12-07T16:26:03;18.63;;;3.25;;
21671;SDS011;10997;52.242;8.168;2022-12-07T16:31:06;13.13;;;2.97;;
21671;SDS011;10997;52.242;8.168;2022-12-07T16:36:13;9.77;;;3.30;;
21671;SDS011;10997;52.242;8.168;2022-12-07T16:41:16;13.80;;;3.47;;
21671;SDS011;10997;52.242;8.168;2022-12-07T16:46:16;10.57;;;3.40;;
21671;SDS011;10997;52.242;8.168;2022-12-07T16:51:17;16.42;;;3.53;;
21671;SDS011;10997;52.242;8.168;2022-12-07T16:56:18;18.92;;;3.70;;
21671;SDS011;10997;52.242;8.168;2022-12-07T17:01:19;14.52;;;3.83;;
21671;SDS011;10997;52.242;8.168;2022-12-07T17:06:24;13.65;;;3.97;;
21671;SDS011;10997;52.242;8.168;2022-12-07T17:11:29;10.90;;;3.25;;
21671;SDS011;10997;52.242;8.168;2022-12-07T17:16:31;12.87;;;3.47;;
21671;SDS011;10997;52.242;8.168;2022-12-07T17:21:32;11.32;;;3.17;;
21671;SDS011;10997;52.242;8.168;2022-12-07T17:26:32;9.68;;;3.50;;
21671;SDS011;10997;52.242;8.168;2022-12-07T17:31:33;10.90;;;3.65;;
21671;SDS011;10997;52.242;8.168;2022-12-07T17:36:34;12.45;;;4.50;;
21671;SDS011;10997;52.242;8.168;2022-12-07T17:41:36;14.05;;;5.25;;
21671;SDS011;10997;52.242;8.168;2022-12-07T17:46:55;14.98;;;5.20;;
21671;SDS011;10997;52.242;8.168;2022-12-07T17:52:01;10.48;;;4.10;;
21671;SDS011;10997;52.242;8.168;2022-12-07T17:57:20;15.35;;;4.30;;
21671;SDS011;10997;52.242;8.168;2022-12-07T18:02:21;10.75;;;4.60;;
21671;SDS011;10997;52.242;8.168;2022-12-07T18:07:22;9.23;;;4.43;;
21671;SDS011;10997;52.242;8.168;2022-12-07T18:12:22;12.82;;;4.40;;
21671;SDS011;10997;52.242;8.168;2022-12-07T18:17:23;9.95;;;4.32;;
21671;SDS011;10997;52.242;8.168;2022-12-07T18:22:23;12.88;;;4.00;;
21671;SDS011;10997;52.242;8.168;2022-12-07T18:27:24;15.57;;;4.15;;
21671;SDS011;10997;52.242;8.168;2022-12-07T18:32:25;9.52;;;3.90;;
21671;SDS011;10997;52.242;8.168;2022-12-07T18:37:27;11.88;;;4.13;;
21671;SDS011;10997;52.242;8.168;2022-12-07T18:42:28;10.98;;;4.20;;
21671;SDS011;10997;52.242;8.168;2022-12-07T18:47:28;14.30;;;5.07;;
21671;SDS011;10997;52.242;8.168;2022-12-07T18:52:29;16.58;;;4.60;;
21671;SDS011;10997;52.242;8.168;2022-12-07T18:57:33;15.55;;;4.40;;
21671;SDS011;10997;52.242;8.168;2022-12-07T19:02:33;12.18;;;3.95;;
21671;SDS011;10997;52.242;8.168;2022-12-07T19:07:34;13.30;;;4.57;;
21671;SDS011;10997;52.242;8.168;2022-12-07T19:12:35;14.25;;;5.28;;
21671;SDS011;10997;52.242;8.168;2022-12-07T19:17:36;15.15;;;4.70;;
21671;SDS011;10997;52.242;8.168;2022-12-07T19:22:36;12.38;;;4.35;;
21671;SDS011;10997;52.242;8.168;2022-12-07T19:27:38;12.45;;;4.20;;
21671;SDS011;10997;52.242;8.168;2022-12-07T19:32:38;11.60;;;4.60;;
21671;SDS011;10997;52.242;8.168;2022-12-07T19:37:39;16.00;;;4.10;;
21671;SDS011;10997;52.242;8.168;2022-12-07T19:42:39;16.35;;;4.72;;
21671;SDS011;10997;52.242;8.168;2022-12-07T19:47:40;11.20;;;4.47;;
21671;SDS011;10997;52.242;8.168;2022-12-07T19:52:41;13.80;;;5.80;;
21671;SDS011;10997;52.242;8.168;2022-12-07T19:57:41;17.25;;;7.10;;
21671;SDS011;10997;52.242;8.168;2022-12-07T20:02:42;19.95;;;8.90;;
21671;SDS011;10997;52.242;8.168;2022-12-07T20:07:42;18.73;;;8.13;;
21671;SDS011;10997;52.242;8.168;2022-12-07T20:12:43;19.35;;;8.63;;
21671;SDS011;10997;52.242;8.168;2022-12-07T20:18:02;16.92;;;9.15;;
21671;SDS011;10997;52.242;8.168;2022-12-07T20:23:03;20.42;;;9.30;;
21671;SDS011;10997;52.242;8.168;2022-12-07T20:28:03;19.10;;;10.05;;
21671;SDS011;10997;52.242;8.168;2022-12-07T20:33:04;20.08;;;10.30;;
21671;SDS011;10997;52.242;8.168;2022-12-07T20:38:04;21.55;;;10.85;;
21671;SDS011;10997;52.242;8.168;2022-12-07T20:43:05;22.38;;;10.55;;
21671;SDS011;10997;52.242;8.168;2022-12-07T20:48:07;19.35;;;8.98;;
21671;SDS011;10997;52.242;8.168;2022-12-07T20:53:08;20.00;;;9.52;;
21671;SDS011;10997;52.242;8.168;2022-12-07T20:58:09;17.55;;;9.07;;
21671;SDS011;10997;52.242;8.168;2022-12-07T21:03:10;18.63;;;9.00;;
21671;SDS011;10997;52.242;8.168;2022-12-07T21:08:11;16.10;;;8.65;;
21671;SDS011;10997;52.242;8.168;2022-12-07T21:13:11;15.60;;;8.55;;
21671;SDS011;10997;52.242;8.168;2022-12-07T21:18:12;18.23;;;8.73;;
21671;SDS011;10997;52.242;8.168;2022-12-07T21:23:12;13.85;;;8.55;;
21671;SDS011;10997;52.242;8.168;2022-12-07T21:28:13;14.13;;;8.27;;
21671;SDS011;10997;52.242;8.168;2022-12-07T21:33:14;16.02;;;8.90;;
21671;SDS011;10997;52.242;8.168;2022-12-07T21:38:14;14.70;;;7.80;;
21671;SDS011;10997;52.242;8.168;2022-12-07T21:43:15;14.60;;;8.35;;
21671;SDS011;10997;52.242;8.168;2022-12-07T21:48:16;17.95;;;8.55;;
21671;SDS011;10997;52.242;8.168;2022-12-07T21:53:16;21.13;;;11.10;;
21671;SDS011;10997;52.242;8.168;2022-12-07T21:58:17;22.73;;;12.27;;
21671;SDS011;10997;52.242;8.168;2022-12-07T22:03:17;29.23;;;14.77;;
21671;SDS011;10997;52.242;8.168;2022-12-07T22:08:18;31.52;;;15.13;;
21671;SDS011;10997;52.242;8.168;2022-12-07T22:13:19;30.70;;;16.00;;
21671;SDS011;10997;52.242;8.168;2022-12-07T22:18:19;28.17;;;15.55;;
21671;SDS011;10997;52.242;8.168;2022-12-07T22:23:20;32.63;;;17.35;;
21671;SDS011;10997;52.242;8.168;2022-12-07T22:28:20;31.23;;;17.65;;
21671;SDS011;10997;52.242;8.168;2022-12-07T22:33:21;34.53;;;17.38;;
21671;SDS011;10997;52.242;8.168;2022-12-07T22:38:22;32.50;;;18.77;;
21671;SDS011;10997;52.242;8.168;2022-12-07T22:43:23;36.70;;;18.23;;
21671;SDS011;10997;52.242;8.168;2022-12-07T22:48:25;31.67;;;17.55;;
21671;SDS011;10997;52.242;8.168;2022-12-07T22:53:26;28.05;;;16.08;;
21671;SDS011;10997;52.242;8.168;2022-12-07T22:58:27;26.13;;;16.67;;
21671;SDS011;10997;52.242;8.168;2022-12-07T23:03:27;31.23;;;15.95;;
21671;SDS011;10997;52.242;8.168;2022-12-07T23:08:28;24.92;;;16.08;;
21671;SDS011;10997;52.242;8.168;2022-12-07T23:13:29;28.92;;;16.30;;
21671;SDS011;10997;52.242;8.168;2022-12-07T23:18:34;26.35;;;16.13;;
21671;SDS011;10997;52.242;8.168;2022-12-07T23:23:35;25.85;;;17.20;;
21671;SDS011;10997;52.242;8.168;2022-12-07T23:28:36;26.95;;;18.20;;
21671;SDS011;10997;52.242;8.168;2022-12-07T23:33:38;27.60;;;17.60;;
21671;SDS011;10997;52.242;8.168;2022-12-07T23:38:39;28.00;;;18.55;;
21671;SDS011;10997;52.242;8.168;2022-12-07T23:43:42;30.23;;;18.52;;
21671;SDS011;10997;52.242;8.168;2022-12-07T23:48:42;26.83;;;17.88;;
21671;SDS011;10997;52.242;8.168;2022-12-07T23:53:45;27.95;;;16.60;;
21671;SDS011;10997;52.242;8.168;2022-12-07T23:58:47;25.58;;;16.73;;
